• Join FlightAware (Why Join?)
  • Login
  • US Flag 
12:31PM EDT


 

Airport Tracker/Info


-or-


 

Live Flight TrackerFlight Track Log ✈ AIP1597 ✈ 19-Nov-2013 ✈ KBIL - KMSO

Flight Track Log - Related Links

Times and Time Zones

All times are in EST time to prevent confusion due to time zone crossing. See the AIP1597 flight status page for this flight to view local times or setup timezone preferences in your user account.

Time Position Orientation Groundspeed Altitude Reporting Facility
EST Latitude Longitude Course Direction KTS MPH feet Rate Location/Type
09:28AM 45.8669 -108.7319 287° West 166 191 9,000  Level Salt Lake Center
09:29AM 45.8878 -108.7992 294° West 172 198 10,600 1,320 Climbing Salt Lake Center
09:30AM 45.8997 -108.8636 285° West 169 194 11,800 1,080 Climbing Salt Lake Center
09:31AM 45.9092 -108.9314 281° West 176 203 12,800 1,080 Climbing Salt Lake Center
09:32AM 45.9191 -109.0363 288° West  Level Estimated
09:32AM 45.9256 -109.0058 288° West 179 206 14,000  Level Salt Lake Center
09:33AM 45.9367 -109.1191 287° West  Level FlightAware Approximate
09:33AM 45.9403 -109.0772 287° West 190 219 14,800  Level Salt Lake Center
09:34AM 45.9592 -109.1475 291° West 191 220 15,800 540 Climbing Salt Lake Center
09:35AM 45.9742 -109.2275 285° West 196 226 16,000  Climbing Salt Lake Center
09:36AM 45.9922 -109.3058 288° West 206 237 15,800  Descending Salt Lake Center
09:37AM 45.9969 -109.3886 275° West 209 241 16,000  Climbing Salt Lake Center
09:38AM 46.0222 -109.4769 292° West 224 258 15,900  Descending Salt Lake Center
09:39AM 46.0478 -109.5583 294° West 226 260 16,000 -60 Climbing Salt Lake Center
09:40AM 46.0661 -109.6503 286° West 224 258 15,800 -120 Descending Salt Lake Center
09:41AM 46.0731 -109.7358 277° West 217 250 15,800  Level Salt Lake Center
09:42AM 46.0922 -109.8225 288° West 220 253 15,900  Climbing Salt Lake Center
09:43AM 46.1117 -109.9086 288° West 226 260 15,900 -60 Level Salt Lake Center
09:44AM 46.1331 -109.9900 291° West 222 255 15,800 -60 Descending Salt Lake Center
09:45AM 46.1547 -110.0742 290° West 221 254 15,800 120 Level Salt Lake Center
09:46AM 46.1733 -110.1592 288° West 223 257 16,100  Climbing Salt Lake Center
09:47AM 46.1908 -110.2475 286° West 228 262 15,800 -180 Descending Salt Lake Center
09:48AM 46.2122 -110.3281 291° West 225 259 15,800  Level Salt Lake Center
09:49AM 46.2325 -110.3997 292° West 210 242 15,900  Climbing Salt Lake Center
09:50AM 46.2472 -110.4931 283° West 201 231 15,800  Descending Salt Lake Center
09:51AM 46.2586 -110.5708 282° West 198 228 16,000  Climbing Salt Lake Center
09:52AM 46.2731 -110.6478 285° West 198 228 15,900 -120 Descending Salt Lake Center
09:53AM 46.2911 -110.7289 288° West 210 242 15,800 -60 Descending Salt Lake Center
09:54AM 46.3086 -110.8092 288° West 210 242 15,800  Level Salt Lake Center
09:56AM 46.3291 -110.9155 286° West  Level FlightAware Approximate
09:56AM 46.3428 -110.9792 286° West 208 239 15,900  Level Salt Lake Center
09:57AM 46.3594 -111.0644 286° West 215 247 15,900 -60 Level Salt Lake Center
09:58AM 46.3758 -111.1425 287° West 203 234 15,800 -60 Descending Salt Lake Center
09:59AM 46.3908 -111.2144 287° West 187 215 15,800 60 Level Salt Lake Center
10:00AM 46.4025 -111.2889 283° West 187 215 16,000  Climbing Salt Lake Center
10:01AM 46.4197 -111.3681 288° West 200 230 15,800 -120 Descending Salt Lake Center
10:02AM 46.4356 -111.4531 285° West 212 244 15,800  Level Salt Lake Center
10:03AM 46.4514 -111.5394 285° West 213 245 15,800  Level Salt Lake Center
10:04AM 46.4681 -111.6228 286° West 216 249 15,800  Level Salt Lake Center
10:06AM 46.4856 -111.7033 288° West 211 243 15,900  Climbing Salt Lake Center
10:07AM 46.5028 -111.7872 287° West 216 249 15,900 -60 Level Salt Lake Center
10:08AM 46.5167 -111.8669 284° West 207 238 15,800  Descending Salt Lake Center
10:09AM 46.5328 -111.9486 286° West 211 243 16,000  Climbing Salt Lake Center
10:10AM 46.5497 -112.0319 286° West 214 246 15,800 -120 Descending Salt Lake Center
10:11AM 46.5658 -112.1153 286° West 216 249 15,800  Level Salt Lake Center
10:12AM 46.5903 -112.2094 291° West 209 241 15,800  Level Salt Lake Center
10:13AM 46.6011 -112.2933 281° West 211 243 15,800  Level Salt Lake Center
10:14AM 46.6169 -112.3722 286° West 205 236 15,900  Climbing Salt Lake Center
10:15AM 46.6328 -112.4525 286° West 208 239 15,800 -60 Descending Salt Lake Center
10:16AM 46.6478 -112.5361 285° West 213 245 15,800  Level Salt Lake Center
10:17AM 46.6639 -112.6192 286° West 213 245 15,800 60 Level Salt Lake Center
10:18AM 46.6817 -112.7019 287° West 216 249 16,000  Climbing Salt Lake Center
10:19AM 46.6936 -112.7869 282° West 215 247 15,800 -60 Descending Salt Lake Center
10:20AM 46.7067 -112.8847 281° West 204 235 15,900 120 Climbing Salt Lake Center
10:21AM 46.7222 -112.9594 287° West 198 228 16,100  Climbing Salt Lake Center
10:22AM 46.7347 -113.0444 282° West 209 241 16,000 -60 Descending Salt Lake Center
10:23AM 46.7483 -113.1281 283° West 214 246 16,000 -60 Level Salt Lake Center
10:24AM 46.7614 -113.2119 283° West 212 244 15,900 -60 Descending Salt Lake Center
10:25AM 46.7806 -113.3031 287° West 208 239 15,900  Level Salt Lake Center
10:26AM 46.7972 -113.3839 287° West 208 239 16,000 -780 Climbing Salt Lake Center
10:27AM 46.8111 -113.4719 283° West 208 239 14,400 -2,280 Descending Salt Lake Center
10:28AM 46.8219 -113.5608 280° West 221 254 11,400 -2,520 Descending Salt Lake Center
10:29AM 46.8300 -113.6558 277° West 234 269 9,200 -1,080 Descending Salt Lake Center
10:30AM 46.8511 -113.7478 289° West 224 258 9,200 -660 Level Salt Lake Center
10:31AM 46.8658 -113.8367 284° West 226 260 7,900 -1,500 Descending Salt Lake Center
10:32AM 46.8567 -113.9319 262° West 220 253 6,200 -1,740 Descending Salt Lake Center
10:33AM 46.8722 -114.0156 285° West 217 250 4,400 -1,380 Descending Salt Lake Center
10:34AM 46.9022 -114.0681 310° West 176 203 3,400 -540 Descending Salt Lake Center
10:35AM 46.9167 -114.0931 310° West 82 94 3,300 -120 Descending Salt Lake Center